createdAt,value
2018-12-08T00:00:38.014Z,3.20
2018-12-08T00:03:07.040Z,4.40
2018-12-08T00:05:35.916Z,3.50
2018-12-08T00:08:04.871Z,3.70
2018-12-08T00:10:33.773Z,3.47
2018-12-08T00:13:02.743Z,2.30
2018-12-08T00:15:32.909Z,3.20
2018-12-08T00:18:03.434Z,2.60
2018-12-08T00:20:37.253Z,2.40
2018-12-08T00:23:06.074Z,2.60
2018-12-08T00:25:34.988Z,2.57
2018-12-08T00:28:03.912Z,2.40
2018-12-08T00:31:09.204Z,3.75
2018-12-08T00:33:38.151Z,2.93
2018-12-08T00:36:07.121Z,4.03
2018-12-08T00:38:35.999Z,3.57
2018-12-08T00:41:04.973Z,3.87
2018-12-08T00:43:33.884Z,4.10
2018-12-08T00:46:02.798Z,3.40
2018-12-08T00:48:31.689Z,3.23
2018-12-08T00:51:00.584Z,4.00
2018-12-08T00:53:29.488Z,3.80
2018-12-08T00:55:58.464Z,3.37
2018-12-08T00:58:27.288Z,3.40
2018-12-08T01:00:56.200Z,3.60
2018-12-08T01:03:25.079Z,3.47
2018-12-08T01:05:53.997Z,3.30
2018-12-08T01:08:22.887Z,3.60
2018-12-08T01:10:51.810Z,4.70
2018-12-08T01:13:20.717Z,3.43
2018-12-08T01:15:49.661Z,3.23
2018-12-08T01:18:18.741Z,3.50
2018-12-08T01:20:47.494Z,3.57
2018-12-08T01:23:16.439Z,3.17
2018-12-08T01:25:45.350Z,3.17
2018-12-08T01:28:14.333Z,4.10
2018-12-08T01:30:43.174Z,2.90
2018-12-08T01:33:12.102Z,3.50
2018-12-08T01:35:40.999Z,2.97
2018-12-08T01:38:10.011Z,3.50
2018-12-08T01:40:38.806Z,4.05
2018-12-08T01:43:07.806Z,3.70
2018-12-08T01:45:36.718Z,3.00
2018-12-08T01:48:05.660Z,2.90
2018-12-08T01:50:34.550Z,3.10
2018-12-08T01:53:03.511Z,4.00
2018-12-08T01:55:32.365Z,3.72
2018-12-08T01:58:01.244Z,3.20
2018-12-08T02:00:30.164Z,3.37
2018-12-08T02:02:59.070Z,2.90
2018-12-08T02:05:28.031Z,3.47
2018-12-08T02:07:56.907Z,3.17
2018-12-08T02:10:25.828Z,3.77
2018-12-08T02:12:54.770Z,3.80
2018-12-08T02:15:23.713Z,4.10
2018-12-08T02:17:52.759Z,3.40
2018-12-08T02:20:21.559Z,3.23
2018-12-08T02:22:50.499Z,3.87
2018-12-08T02:25:19.427Z,3.93
2018-12-08T02:27:48.369Z,3.70
2018-12-08T02:30:17.276Z,3.13
2018-12-08T02:32:46.199Z,3.27
2018-12-08T02:35:15.091Z,3.67
2018-12-08T02:37:44.014Z,3.50
2018-12-08T02:40:12.932Z,3.00
2018-12-08T02:42:41.832Z,2.80
2018-12-08T02:45:10.729Z,3.40
2018-12-08T02:47:39.671Z,3.10
2018-12-08T02:50:08.636Z,3.57
2018-12-08T02:52:37.549Z,3.13
2018-12-08T02:55:06.524Z,3.43
2018-12-08T02:57:35.445Z,3.43
2018-12-08T03:00:04.466Z,4.17
2018-12-08T03:02:33.365Z,3.20
2018-12-08T03:05:02.287Z,3.00
2018-12-08T03:07:31.188Z,3.30
2018-12-08T03:10:00.115Z,3.47
2018-12-08T03:12:29.011Z,4.50
2018-12-08T03:14:57.922Z,3.47
2018-12-08T03:17:26.789Z,3.33
2018-12-08T03:19:55.733Z,3.20
2018-12-08T03:22:24.651Z,3.00
2018-12-08T03:24:53.716Z,3.47
2018-12-08T03:27:22.651Z,2.87
2018-12-08T03:29:51.574Z,3.43
2018-12-08T03:32:20.471Z,3.10
2018-12-08T03:34:49.357Z,3.53
2018-12-08T03:37:18.325Z,3.07
2018-12-08T03:39:47.210Z,3.63
2018-12-08T03:42:16.127Z,2.83
2018-12-08T03:44:44.991Z,3.97
2018-12-08T03:47:13.905Z,3.23
2018-12-08T03:49:42.787Z,3.90
2018-12-08T03:52:11.701Z,4.13
2018-12-08T03:54:40.613Z,3.43
2018-12-08T03:57:09.526Z,3.37
2018-12-08T03:59:38.432Z,3.70
2018-12-08T04:02:07.364Z,3.50
2018-12-08T04:04:36.258Z,4.40
2018-12-08T04:07:05.213Z,3.90
2018-12-08T04:09:34.103Z,3.83
2018-12-08T04:12:03.012Z,4.23
2018-12-08T04:14:31.990Z,3.77
2018-12-08T04:17:00.850Z,4.83
2018-12-08T04:19:29.796Z,4.03
2018-12-08T04:21:58.699Z,4.30
2018-12-08T04:24:27.636Z,3.17
2018-12-08T04:26:56.532Z,3.17
2018-12-08T04:29:25.432Z,3.77
2018-12-08T04:31:54.343Z,3.80
2018-12-08T04:34:23.239Z,4.00
2018-12-08T04:36:52.129Z,3.57
2018-12-08T04:39:21.036Z,3.93
2018-12-08T04:41:49.988Z,4.17
2018-12-08T04:44:18.960Z,3.90
2018-12-08T04:46:47.953Z,4.27
2018-12-08T04:49:16.817Z,3.37
2018-12-08T04:51:45.760Z,3.53
2018-12-08T04:54:14.727Z,3.60
2018-12-08T04:56:43.645Z,2.77
2018-12-08T04:59:12.560Z,3.93
2018-12-08T05:01:41.488Z,4.33
2018-12-08T05:04:10.395Z,3.67
2018-12-08T05:06:39.306Z,4.00
2018-12-08T05:09:08.356Z,4.37
2018-12-08T05:11:37.249Z,4.10
2018-12-08T05:14:06.231Z,3.80
2018-12-08T05:16:35.074Z,4.00
2018-12-08T05:19:03.979Z,4.97
2018-12-08T05:21:32.899Z,3.70
2018-12-08T05:24:01.828Z,3.90
2018-12-08T05:26:30.747Z,4.93
2018-12-08T05:28:59.625Z,5.03
2018-12-08T05:31:28.535Z,3.70
2018-12-08T05:33:57.417Z,3.60
2018-12-08T05:36:26.314Z,3.73
2018-12-08T05:38:55.191Z,4.07
2018-12-08T05:41:24.081Z,3.77
2018-12-08T05:43:52.963Z,3.20
2018-12-08T05:46:21.858Z,4.43
2018-12-08T05:48:50.774Z,3.97
2018-12-08T05:51:19.661Z,4.53
2018-12-08T05:53:48.564Z,4.30
2018-12-08T05:56:17.459Z,4.23
2018-12-08T05:58:46.360Z,3.93
2018-12-08T06:01:15.233Z,3.80
2018-12-08T06:03:44.153Z,4.93
2018-12-08T06:06:13.023Z,4.83
2018-12-08T06:08:41.911Z,4.93
2018-12-08T06:11:10.793Z,4.80
2018-12-08T06:13:39.691Z,5.63
2018-12-08T06:16:08.623Z,5.13
2018-12-08T06:18:37.527Z,5.47
2018-12-08T06:21:06.441Z,4.90
2018-12-08T06:23:35.320Z,7.08
2018-12-08T06:26:17.423Z,5.63
2018-12-08T06:28:48.566Z,4.10
2018-12-08T06:31:17.480Z,4.20
2018-12-08T06:33:46.405Z,5.30
2018-12-08T06:36:15.323Z,3.83
2018-12-08T06:38:44.207Z,5.50
2018-12-08T06:41:13.202Z,4.27
2018-12-08T06:43:42.079Z,5.47
2018-12-08T06:46:11.012Z,4.47
2018-12-08T06:48:39.909Z,4.47
2018-12-08T06:51:08.845Z,4.70
2018-12-08T06:53:37.711Z,5.40
2018-12-08T06:56:06.687Z,5.10
2018-12-08T06:58:35.577Z,5.60
2018-12-08T07:01:04.473Z,6.20
2018-12-08T07:03:33.363Z,5.53
2018-12-08T07:06:02.263Z,5.50
2018-12-08T07:08:31.223Z,6.00
2018-12-08T07:11:00.075Z,6.40
2018-12-08T07:13:28.964Z,6.20
2018-12-08T07:15:57.890Z,6.77
2018-12-08T07:18:26.819Z,6.93
2018-12-08T07:20:55.713Z,6.70
2018-12-08T07:23:24.619Z,7.03
2018-12-08T07:25:53.600Z,6.97
2018-12-08T07:28:22.540Z,8.20
2018-12-08T07:30:51.425Z,8.53
2018-12-08T07:33:20.322Z,8.00
2018-12-08T07:35:49.227Z,7.50
2018-12-08T07:38:18.136Z,7.63
2018-12-08T07:40:47.038Z,7.33
2018-12-08T07:43:15.955Z,7.53
2018-12-08T07:45:44.849Z,7.43
2018-12-08T07:48:13.799Z,8.37
2018-12-08T07:50:42.712Z,9.47
2018-12-08T07:53:11.605Z,8.43
2018-12-08T07:55:40.503Z,8.30
2018-12-08T07:58:09.536Z,8.10
2018-12-08T08:00:38.425Z,9.80
2018-12-08T08:03:07.559Z,8.60
2018-12-08T08:05:36.430Z,8.27
2018-12-08T08:08:05.481Z,9.00
2018-12-08T08:10:34.384Z,9.70
2018-12-08T08:13:03.314Z,10.30
2018-12-08T08:15:32.193Z,10.37
2018-12-08T08:18:01.106Z,9.37
2018-12-08T08:20:29.995Z,9.00
2018-12-08T08:22:58.889Z,11.25
2018-12-08T08:25:27.803Z,8.97
2018-12-08T08:27:56.797Z,7.80
2018-12-08T08:30:25.699Z,7.87
2018-12-08T08:32:54.604Z,7.23
2018-12-08T08:35:23.533Z,5.97
2018-12-08T08:37:52.388Z,5.57
2018-12-08T08:40:21.327Z,5.13
2018-12-08T08:42:50.219Z,6.00
2018-12-08T08:45:19.127Z,6.07
2018-12-08T08:47:48.126Z,6.23
2018-12-08T08:50:16.944Z,7.13
2018-12-08T08:52:45.835Z,6.17
2018-12-08T08:55:14.757Z,5.83
2018-12-08T08:57:43.823Z,6.17
2018-12-08T09:00:12.779Z,5.63
2018-12-08T09:02:41.680Z,6.27
2018-12-08T09:05:10.591Z,4.80
2018-12-08T09:07:39.527Z,5.73
2018-12-08T09:10:11.834Z,6.47
2018-12-08T09:12:40.707Z,5.63
2018-12-08T09:15:09.898Z,5.13
2018-12-08T09:17:38.844Z,5.40
2018-12-08T09:20:10.311Z,5.33
2018-12-08T09:22:39.518Z,5.63
2018-12-08T09:25:09.472Z,5.87
2018-12-08T09:27:38.424Z,5.00
2018-12-08T09:30:09.826Z,6.00
2018-12-08T09:32:38.730Z,7.15
2018-12-08T09:35:07.683Z,6.23
2018-12-08T09:37:36.632Z,4.90
2018-12-08T09:40:06.925Z,5.57
2018-12-08T09:42:35.857Z,5.70
2018-12-08T09:45:04.852Z,4.97
2018-12-08T09:47:33.699Z,5.30
2018-12-08T09:50:02.714Z,4.37
2018-12-08T09:52:31.645Z,4.67
2018-12-08T09:55:00.504Z,6.35
2018-12-08T09:57:29.390Z,5.30
2018-12-08T09:59:58.285Z,5.30
2018-12-08T10:02:27.196Z,5.17
2018-12-08T10:04:56.108Z,4.47
2018-12-08T10:07:25.035Z,5.40
2018-12-08T10:09:53.955Z,4.73
2018-12-08T10:12:22.873Z,4.93
2018-12-08T10:14:51.756Z,4.77
2018-12-08T10:17:20.664Z,4.90
2018-12-08T10:19:49.573Z,4.53
2018-12-08T10:22:18.479Z,5.20
2018-12-08T10:24:47.393Z,4.87
2018-12-08T10:27:16.529Z,5.33
2018-12-08T10:29:45.381Z,4.67
2018-12-08T10:32:14.257Z,3.90
2018-12-08T10:34:43.180Z,4.97
2018-12-08T10:37:12.069Z,4.60
2018-12-08T10:39:40.961Z,4.43
2018-12-08T10:42:09.969Z,4.77
2018-12-08T10:44:38.878Z,3.87
2018-12-08T10:47:07.976Z,5.10
2018-12-08T10:49:36.888Z,5.33
2018-12-08T10:52:06.015Z,4.03
2018-12-08T10:54:34.882Z,4.63
2018-12-08T10:57:03.884Z,5.10
2018-12-08T10:59:32.780Z,4.30
2018-12-08T11:02:04.488Z,4.03
2018-12-08T11:04:33.349Z,5.10
2018-12-08T11:07:02.306Z,4.43
2018-12-08T11:09:31.181Z,4.50
2018-12-08T11:12:00.111Z,4.60
2018-12-08T11:14:28.994Z,4.47
2018-12-08T11:16:57.917Z,4.63
2018-12-08T11:19:26.820Z,4.83
2018-12-08T11:21:55.702Z,3.77
2018-12-08T11:24:27.241Z,5.30
2018-12-08T11:26:56.501Z,3.53
2018-12-08T11:29:24.760Z,4.40
2018-12-08T11:31:54.237Z,4.30
2018-12-08T11:34:30.370Z,3.83
2018-12-08T11:37:02.067Z,5.35
2018-12-08T11:39:32.148Z,4.70
2018-12-08T11:42:07.417Z,4.17
2018-12-08T11:44:39.531Z,4.33
2018-12-08T11:47:16.649Z,4.07
2018-12-08T11:49:46.232Z,4.03
2018-12-08T11:52:15.746Z,3.17
2018-12-08T11:54:46.775Z,4.27
2018-12-08T11:57:18.060Z,4.23
2018-12-08T11:59:48.267Z,4.00
2018-12-08T12:02:17.805Z,4.23
2018-12-08T12:04:50.076Z,4.00
2018-12-08T12:07:19.483Z,4.70
2018-12-08T12:09:52.583Z,4.00
2018-12-08T12:12:22.464Z,4.17
2018-12-08T12:14:52.351Z,4.03
2018-12-08T12:17:21.699Z,3.73
2018-12-08T12:19:53.828Z,4.63
2018-12-08T12:22:35.003Z,4.37
2018-12-08T12:25:05.901Z,3.83
2018-12-08T12:27:39.797Z,3.70
2018-12-08T12:30:09.500Z,2.97
2018-12-08T12:32:40.652Z,3.63
2018-12-08T12:35:14.216Z,3.30
2018-12-08T12:37:48.275Z,8.23
2018-12-08T12:40:40.295Z,4.40
2018-12-08T12:43:13.328Z,3.33
2018-12-08T12:45:42.960Z,3.80
2018-12-08T12:48:12.432Z,3.33
2018-12-08T12:50:41.914Z,2.80
2018-12-08T12:53:23.551Z,2.83
2018-12-08T12:55:55.811Z,2.67
2018-12-08T12:58:25.386Z,3.43
2018-12-08T13:01:10.910Z,3.40
2018-12-08T13:03:43.162Z,2.90
2018-12-08T13:06:13.767Z,3.10
2018-12-08T13:08:44.055Z,2.87
2018-12-08T13:11:14.525Z,3.27
2018-12-08T13:13:43.885Z,3.33
2018-12-08T13:16:13.794Z,3.40
2018-12-08T13:18:48.180Z,3.00
2018-12-08T13:21:17.979Z,3.93
2018-12-08T13:23:49.382Z,3.20
2018-12-08T13:26:19.069Z,2.73
2018-12-08T13:28:49.741Z,3.30
2018-12-08T13:31:21.223Z,3.23
2018-12-08T13:33:54.558Z,3.60
2018-12-08T13:36:26.770Z,3.43
2018-12-08T13:38:56.345Z,2.93
2018-12-08T13:41:26.195Z,3.30
2018-12-08T13:43:56.207Z,4.00
2018-12-08T13:46:27.359Z,2.87
2018-12-08T13:48:56.590Z,2.90
2018-12-08T13:51:29.123Z,3.40
2018-12-08T13:53:58.732Z,2.90
2018-12-08T13:56:30.248Z,3.23
2018-12-08T13:58:58.209Z,3.20
2018-12-08T14:01:35.820Z,2.87
2018-12-08T14:04:08.035Z,3.73
2018-12-08T14:06:37.739Z,3.67
2018-12-08T14:09:07.621Z,3.00
2018-12-08T14:11:39.794Z,3.33
2018-12-08T14:14:09.503Z,3.37
2018-12-08T14:16:39.316Z,3.43
2018-12-08T14:19:09.783Z,3.33
2018-12-08T14:21:42.262Z,3.20
2018-12-08T14:24:17.387Z,2.50
2018-12-08T14:26:46.901Z,2.73
2018-12-08T14:29:16.341Z,2.93
2018-12-08T14:31:45.875Z,3.07
2018-12-08T14:34:16.350Z,3.17
2018-12-08T14:36:45.773Z,2.93
2018-12-08T14:39:15.705Z,3.00
2018-12-08T14:41:46.692Z,2.23
2018-12-08T14:44:15.101Z,3.13
2018-12-08T14:47:03.501Z,2.93
2018-12-08T14:49:35.131Z,3.70
2018-12-08T14:52:07.978Z,2.83
2018-12-08T14:54:40.247Z,3.13
2018-12-08T14:57:17.545Z,2.67
2018-12-08T14:59:45.464Z,4.58
2018-12-08T15:02:15.748Z,4.30
2018-12-08T15:04:45.537Z,4.17
2018-12-08T15:07:14.987Z,4.47
2018-12-08T15:09:44.633Z,3.50
2018-12-08T15:12:17.877Z,3.97
2018-12-08T15:14:51.367Z,3.63
2018-12-08T15:17:21.078Z,3.90
2018-12-08T15:19:52.820Z,4.10
2018-12-08T15:22:22.526Z,4.43
2018-12-08T15:24:52.180Z,3.57
2018-12-08T15:27:23.876Z,4.40
2018-12-08T15:29:56.671Z,4.07
2018-12-08T15:32:26.349Z,5.07
2018-12-08T15:34:58.009Z,4.53
2018-12-08T15:37:30.489Z,4.90
2018-12-08T15:40:00.028Z,4.83
2018-12-08T15:42:32.264Z,4.90
2018-12-08T15:45:01.720Z,6.90
2018-12-08T15:47:35.970Z,5.60
2018-12-08T15:50:07.904Z,4.87
2018-12-08T15:52:50.737Z,6.00
2018-12-08T15:55:24.584Z,5.50
2018-12-08T15:57:54.214Z,4.93
2018-12-08T16:00:23.981Z,6.80
2018-12-08T16:02:53.873Z,5.93
2018-12-08T16:05:25.886Z,5.47
2018-12-08T16:08:08.363Z,6.30
2018-12-08T16:10:36.177Z,6.10
2018-12-08T16:13:11.566Z,7.53
2018-12-08T16:15:43.626Z,7.33
2018-12-08T16:18:16.197Z,6.00
2018-12-08T16:20:50.425Z,6.13
2018-12-08T16:23:20.253Z,5.57
2018-12-08T16:25:51.552Z,5.67
2018-12-08T16:28:19.271Z,5.67
2018-12-08T16:30:51.075Z,5.33
2018-12-08T16:33:18.779Z,6.53
2018-12-08T16:35:48.450Z,4.90
2018-12-08T16:38:17.674Z,6.07
2018-12-08T16:40:50.209Z,6.43
2018-12-08T16:43:24.560Z,7.62
2018-12-08T16:45:56.629Z,4.87
2018-12-08T16:48:26.032Z,5.17
2018-12-08T16:51:01.234Z,4.53
2018-12-08T16:53:36.489Z,5.73
2018-12-08T16:56:12.998Z,5.43
2018-12-08T16:58:42.724Z,5.00
2018-12-08T17:01:16.316Z,4.73
2018-12-08T17:03:44.017Z,4.37
2018-12-08T17:06:18.408Z,4.67
2018-12-08T17:08:50.182Z,4.30
2018-12-08T17:11:22.393Z,4.27
2018-12-08T17:13:51.988Z,4.73
2018-12-08T17:16:21.472Z,4.07
2018-12-08T17:18:51.072Z,3.93
2018-12-08T17:21:23.509Z,4.30
2018-12-08T17:23:52.921Z,4.92
2018-12-08T17:26:22.373Z,3.90
2018-12-08T17:28:58.081Z,3.20
2018-12-08T17:31:45.408Z,3.70
2018-12-08T17:34:15.830Z,4.03
2018-12-08T17:36:45.380Z,4.00
2018-12-08T17:39:17.428Z,4.17
2018-12-08T17:41:49.844Z,4.00
2018-12-08T17:44:21.611Z,4.47
2018-12-08T17:46:51.215Z,4.07
2018-12-08T17:49:23.558Z,4.53
2018-12-08T17:51:52.838Z,5.03
2018-12-08T17:54:22.360Z,5.87
2018-12-08T17:56:53.563Z,5.13
2018-12-08T17:59:21.435Z,4.70
2018-12-08T18:01:54.652Z,5.97
2018-12-08T18:04:24.190Z,6.10
2018-12-08T18:06:53.712Z,6.53
2018-12-08T18:09:26.017Z,6.37
2018-12-08T18:11:57.842Z,7.50
2018-12-08T18:14:27.268Z,8.30
2018-12-08T18:16:56.693Z,8.90
2018-12-08T18:19:25.908Z,7.93
2018-12-08T18:21:55.747Z,8.17
2018-12-08T18:24:24.961Z,10.80
2018-12-08T18:27:00.531Z,8.50
2018-12-08T18:29:30.755Z,8.07
2018-12-08T18:32:00.005Z,8.00
2018-12-08T18:34:29.675Z,7.43
2018-12-08T18:36:59.641Z,7.30
2018-12-08T18:39:29.202Z,6.87
2018-12-08T18:42:00.859Z,8.88
2018-12-08T18:44:31.137Z,6.30
2018-12-08T18:47:00.556Z,5.93
2018-12-08T18:49:29.815Z,5.40
2018-12-08T18:52:01.989Z,6.63
2018-12-08T18:54:33.859Z,6.70
2018-12-08T18:57:08.551Z,6.80
2018-12-08T18:59:39.904Z,7.33
2018-12-08T19:02:06.963Z,6.10
2018-12-08T19:04:36.088Z,6.57
2018-12-08T19:07:07.614Z,5.90
2018-12-08T19:09:37.218Z,5.90
2018-12-08T19:12:06.914Z,6.00
2018-12-08T19:14:36.488Z,5.27
2018-12-08T19:17:06.198Z,5.53
2018-12-08T19:19:39.044Z,5.40
2018-12-08T19:22:08.832Z,5.53
2018-12-08T19:24:38.271Z,5.47
2018-12-08T19:27:07.972Z,5.43
2018-12-08T19:29:40.219Z,4.90
2018-12-08T19:32:09.531Z,4.40
2018-12-08T19:34:45.180Z,4.93
2018-12-08T19:37:19.899Z,4.60
2018-12-08T19:39:51.798Z,4.00
2018-12-08T19:42:25.593Z,4.17
2018-12-08T19:44:59.313Z,3.93
2018-12-08T19:47:30.191Z,4.30
2018-12-08T19:50:03.388Z,4.17
2018-12-08T19:52:34.652Z,3.60
2018-12-08T19:55:02.215Z,3.10
2018-12-08T19:57:33.618Z,3.70
2018-12-08T20:00:07.577Z,3.60
2018-12-08T20:02:37.157Z,3.53
2018-12-08T20:05:09.840Z,3.90
2018-12-08T20:07:39.403Z,3.23
2018-12-08T20:10:08.838Z,3.33
2018-12-08T20:12:38.105Z,3.50
2018-12-08T20:15:10.688Z,3.10
2018-12-08T20:17:43.690Z,3.40
2018-12-08T20:20:15.998Z,2.50
2018-12-08T20:22:45.411Z,2.53
2018-12-08T20:25:15.194Z,2.80
2018-12-08T20:27:48.741Z,2.60
2018-12-08T20:30:19.489Z,2.27
2018-12-08T20:32:52.093Z,2.40
2018-12-08T20:35:23.782Z,2.20
2018-12-08T20:37:55.182Z,2.57
2018-12-08T20:40:24.845Z,2.57
2018-12-08T20:42:57.175Z,2.20
2018-12-08T20:45:29.474Z,2.60
2018-12-08T20:48:01.068Z,2.20
2018-12-08T20:50:33.559Z,2.73
2018-12-08T20:53:09.059Z,2.07
2018-12-08T20:55:40.357Z,2.33
2018-12-08T20:58:10.176Z,2.70
2018-12-08T21:00:42.453Z,1.90
2018-12-08T21:03:14.482Z,2.50
2018-12-08T21:05:47.194Z,2.53
2018-12-08T21:08:22.459Z,3.90
2018-12-08T21:10:54.862Z,3.30
2018-12-08T21:13:26.382Z,3.23
2018-12-08T21:15:57.910Z,3.70
2018-12-08T21:18:28.123Z,3.30
2018-12-08T21:21:00.348Z,3.60
2018-12-08T21:23:37.097Z,3.13
2018-12-08T21:26:10.088Z,3.87
2018-12-08T21:28:39.817Z,3.97
2018-12-08T21:31:11.978Z,4.40
2018-12-08T21:33:44.238Z,4.00
2018-12-08T21:36:13.703Z,4.40
2018-12-08T21:38:49.807Z,4.13
2018-12-08T21:41:19.046Z,4.30
2018-12-08T21:43:48.956Z,4.73
2018-12-08T21:46:17.999Z,4.13
2018-12-08T21:48:46.946Z,4.80
2018-12-08T21:51:15.779Z,4.57
2018-12-08T21:53:44.736Z,4.70
2018-12-08T21:56:13.633Z,4.60
2018-12-08T21:58:42.592Z,3.70
2018-12-08T22:01:11.518Z,5.37
2018-12-08T22:03:40.400Z,5.30
2018-12-08T22:06:09.411Z,5.47
2018-12-08T22:08:38.311Z,3.00
2018-12-08T22:11:07.330Z,2.57
2018-12-08T22:13:36.208Z,2.90
2018-12-08T22:16:05.076Z,2.57
2018-12-08T22:18:33.979Z,3.30
2018-12-08T22:21:02.884Z,3.00
2018-12-08T22:23:31.758Z,2.23
2018-12-08T22:26:00.665Z,2.93
2018-12-08T22:28:29.564Z,2.47
2018-12-08T22:30:58.460Z,2.90
2018-12-08T22:33:27.384Z,2.60
2018-12-08T22:35:56.289Z,2.40
2018-12-08T22:38:25.172Z,2.10
2018-12-08T22:40:54.128Z,1.83
2018-12-08T22:43:22.992Z,2.23
2018-12-08T22:45:52.042Z,2.23
2018-12-08T22:48:20.956Z,2.23
2018-12-08T22:50:49.838Z,2.90
2018-12-08T22:53:18.741Z,2.60
2018-12-08T22:55:53.203Z,2.83
2018-12-08T22:58:22.140Z,2.53
2018-12-08T23:00:52.599Z,2.70
2018-12-08T23:03:21.487Z,2.30
2018-12-08T23:05:50.424Z,2.57
2018-12-08T23:08:19.325Z,2.40
2018-12-08T23:10:48.209Z,3.27
2018-12-08T23:13:17.089Z,3.10
2018-12-08T23:15:45.992Z,4.20
2018-12-08T23:18:14.875Z,3.87
2018-12-08T23:20:43.760Z,4.87
2018-12-08T23:23:12.614Z,4.13
2018-12-08T23:25:41.524Z,5.30
2018-12-08T23:28:10.395Z,4.93
2018-12-08T23:30:39.314Z,5.80
2018-12-08T23:33:08.408Z,4.73
2018-12-08T23:35:37.306Z,4.23
2018-12-08T23:38:06.310Z,5.00
2018-12-08T23:40:35.163Z,4.50
2018-12-08T23:43:04.116Z,5.30
2018-12-08T23:45:32.988Z,4.97
2018-12-08T23:48:01.905Z,5.33
2018-12-08T23:50:30.823Z,4.83
2018-12-08T23:52:59.699Z,4.13
2018-12-08T23:55:28.716Z,4.53
2018-12-08T23:57:57.638Z,4.20
